WetterOnline ( https://www.wetteronline.de )

Wetter aktuell Hoyerswerda

Aktuelles Wetter: Hoyerswerda (116m)

6-stündlich | Neueste Meldungen
Ortszeit Temperatur Wetter
Mi, 12.08. 20:00 29.3° C fast wolkenlos
Mi, 12.08. 14:00 30.0° C wolkenlos
Mi, 12.08. 8:00 20.2° C wolkenlos
Mi, 12.08. 2:00 20.8° C wolkenlos
Di, 11.08. 20:00 27.7° C wolkenlos
Di, 11.08. 14:00 31.7° C fast wolkenlos
Di, 11.08. 8:00 20.8° C wolkenlos
Di, 11.08. 2:00 19.2° C bedeckt
Ortszeit Temperatur Wetter
Mi, 12.08. 23:30 23.9° C leicht bewölkt
Mi, 12.08. 23:20 23.9° C leicht bewölkt
Mi, 12.08. 23:10 24.1° C fast wolkenlos
Mi, 12.08. 23:00 24.2° C wolkenlos
Mi, 12.08. 22:50 24.2° C wolkenlos
Mi, 12.08. 22:40 24.8° C wolkenlos
Mi, 12.08. 22:30 25.0° C fast wolkenlos
Mi, 12.08. 22:00 25.5° C wolkig
Mi, 12.08. 21:30 25.4° C leicht bewölkt
Mi, 12.08. 21:00 26.4° C leicht bewölkt
Mi, 12.08. 20:30 28.3° C wolkenlos
Ortszeit Relative Feuchte Sichtweite
Mi, 12.08. 20:00 34% 60 km
Mi, 12.08. 14:00 33% 45 km
Mi, 12.08. 8:00 58% 50 km
Mi, 12.08. 2:00 73% 40 km
Di, 11.08. 20:00 43% 50 km
Di, 11.08. 14:00 34% >70 km
Di, 11.08. 8:00 75% 35 km
Di, 11.08. 2:00 99% 6 km
Ortszeit Relative Feuchte Sichtweite
Mi, 12.08. 23:30 51% 50 km
Mi, 12.08. 23:20 51% -
Mi, 12.08. 23:10 51% -
Mi, 12.08. 23:00 51% 55 km
Mi, 12.08. 22:50 51% -
Mi, 12.08. 22:40 50% -
Mi, 12.08. 22:30 50% 55 km
Mi, 12.08. 22:00 47% 45 km
Mi, 12.08. 21:30 50% 40 km
Mi, 12.08. 21:00 47% 50 km
Mi, 12.08. 20:30 39% 60 km
Ortszeit Niederschlagsmenge Niederschlagsart
Mi, 12.08. 20:00 0.0 l/m2 in 12 Std. -
Mi, 12.08. 14:00 0.0 l/m2 in 6 Std. -
Mi, 12.08. 8:00 0.0 l/m2 in 12 Std. -
Mi, 12.08. 2:00 0.0 l/m2 in 6 Std. -
Di, 11.08. 20:00 0.0 l/m2 in 12 Std. -
Di, 11.08. 14:00 0.0 l/m2 in 6 Std. -
Di, 11.08. 8:00 0.0 l/m2 in 12 Std. -
Di, 11.08. 2:00 0.0 l/m2 in 6 Std. -
Ortszeit Niederschlagsmenge Niederschlagsart
Mi, 12.08. 23:30 0.0 l/m2 in 1 Std. -
Mi, 12.08. 23:20 keine Meldung -
Mi, 12.08. 23:10 keine Meldung -
Mi, 12.08. 23:00 0.0 l/m2 in 1 Std. -
Mi, 12.08. 22:50 keine Meldung -
Mi, 12.08. 22:40 keine Meldung -
Mi, 12.08. 22:30 0.0 l/m2 in 1 Std. -
Mi, 12.08. 22:00 0.0 l/m2 in 1 Std. -
Mi, 12.08. 21:30 0.0 l/m2 in 1 Std. -
Mi, 12.08. 21:00 0.0 l/m2 in 1 Std. -
Mi, 12.08. 20:30 0.0 l/m2 in 1 Std. -
Ortszeit Stärke Spitze Richtung
km/h Bft. km/h Grad Sektor
Mi, 12.08. 20:00 11 2 25 80° O
Mi, 12.08. 14:00 11 2 29 100° O
Mi, 12.08. 8:00 11 2 25 90° O
Mi, 12.08. 2:00 7 2 18 80° O
Di, 11.08. 20:00 9 2 35 100° O
Di, 11.08. 14:00 15 3 28 80° O
Di, 11.08. 8:00 7 2 14 60° NO
Di, 11.08. 2:00 4 1 11 60° NO
Ortszeit Stärke Spitze Richtung
km/h Bft. km/h Grad Sektor
Mi, 12.08. 23:30 11 2 17 90° O
Mi, 12.08. 23:20 11 2 - 90° O
Mi, 12.08. 23:10 9 2 - 90° O
Mi, 12.08. 23:00 11 2 22 80° O
Mi, 12.08. 22:50 11 2 - 80° O
Mi, 12.08. 22:40 11 2 - 90° O
Mi, 12.08. 22:30 9 2 20 90° O
Mi, 12.08. 22:00 11 2 19 70° O
Mi, 12.08. 21:30 9 2 17 70° O
Mi, 12.08. 21:00 7 2 14 90° O
Mi, 12.08. 20:30 9 2 15 100° O
Ortszeit Untergrenze Bedeckung Gattung
total tief tief mittel hoch
Mi, 12.08. 20:00 10500 m 1/8 0/8 - - -
Mi, 12.08. 14:00 - 0/8 0/8 - - -
Mi, 12.08. 8:00 - 0/8 0/8 - - -
Mi, 12.08. 2:00 - 0/8 0/8 - - -
Di, 11.08. 20:00 - 0/8 0/8 - - -
Di, 11.08. 14:00 1800 m 1/8 1/8 - - -
Di, 11.08. 8:00 - 0/8 0/8 - - -
Di, 11.08. 2:00 4800 m 8/8 8/8 - - -
Ortszeit Bedeckungsgrad in Achtel und Wolkenuntergrenze
Mi, 12.08. 23:30 4(10500m)
Mi, 12.08. 23:20 4(10500m)
Mi, 12.08. 23:10 2(10500m)
Mi, 12.08. 23:00 2(10500m)
Mi, 12.08. 22:50 keine Wolken
Mi, 12.08. 22:40 keine Wolken
Mi, 12.08. 22:30 2(10500m)
Mi, 12.08. 22:00 8(10500m)
Mi, 12.08. 21:30 6(10500m)
Mi, 12.08. 21:00 6(10500m)
Mi, 12.08. 20:30 keine Wolken
Ortszeit Luftdruck NN (hPa) Tendenz (hPa in 3 Std.)
Mi, 12.08. 20:00 1016 - 0,7
Mi, 12.08. 14:00 1018 - 1,1
Mi, 12.08. 8:00 1020 + 0,2
Mi, 12.08. 2:00 1019 + 0,2
Di, 11.08. 20:00 1018 + 0,2
Di, 11.08. 14:00 1018 - 0,9
Di, 11.08. 8:00 1019 + 0,3
Di, 11.08. 2:00 1018 + 0,4
Ortszeit Luftdruck NN (hPa) Tendenz (hPa in 3 Std.)
Mi, 12.08. 23:30 1016 + 0,4
Mi, 12.08. 23:20 1016 keine Meldung
Mi, 12.08. 23:10 1016 keine Meldung
Mi, 12.08. 23:00 1016 + 0,4
Mi, 12.08. 22:50 1016 keine Meldung
Mi, 12.08. 22:40 1016 keine Meldung
Mi, 12.08. 22:30 1016 + 0,6
Mi, 12.08. 22:00 1016 + 0,5
Mi, 12.08. 21:30 1016 + 0,1
Mi, 12.08. 21:00 1016 - 0,2
Mi, 12.08. 20:30 1016 - 0,4
Ortszeit Schneehöhe (cm)
Mi, 12.08. 20:00 -
Mi, 12.08. 14:00 -
Mi, 12.08. 8:00 -
Mi, 12.08. 2:00 -
Di, 11.08. 20:00 -
Di, 11.08. 14:00 -
Di, 11.08. 8:00 -
Di, 11.08. 2:00 -
Ortszeit Schneehöhe (cm)
Mi, 12.08. 23:30 -
Mi, 12.08. 23:20 -
Mi, 12.08. 23:10 -
Mi, 12.08. 23:00 -
Mi, 12.08. 22:50 -
Mi, 12.08. 22:40 -
Mi, 12.08. 22:30 -
Mi, 12.08. 22:00 -
Mi, 12.08. 21:30 -
Mi, 12.08. 21:00 -
Mi, 12.08. 20:30 -
Link zu dieser Seite / Seite empfehlen

Das Wetter in ...